sensor_id;sensor_type;location;lat;lon;timestamp;P1;durP1;ratioP1;P2;durP2;ratioP2
26504;SDS011;19493;48.042;7.584;2024-03-17T00:00:19;21.95;;;5.32;;
26504;SDS011;19493;48.042;7.584;2024-03-17T00:02:45;19.92;;;4.45;;
26504;SDS011;19493;48.042;7.584;2024-03-17T00:05:11;17.52;;;4.45;;
26504;SDS011;19493;48.042;7.584;2024-03-17T00:07:38;16.83;;;4.30;;
26504;SDS011;19493;48.042;7.584;2024-03-17T00:10:04;12.43;;;4.00;;
26504;SDS011;19493;48.042;7.584;2024-03-17T00:12:30;18.13;;;4.85;;
26504;SDS011;19493;48.042;7.584;2024-03-17T00:14:55;10.90;;;3.28;;
26504;SDS011;19493;48.042;7.584;2024-03-17T00:17:21;17.35;;;4.00;;
26504;SDS011;19493;48.042;7.584;2024-03-17T00:19:48;11.57;;;3.80;;
26504;SDS011;19493;48.042;7.584;2024-03-17T00:22:13;14.38;;;4.15;;
26504;SDS011;19493;48.042;7.584;2024-03-17T00:24:40;10.57;;;3.50;;
26504;SDS011;19493;48.042;7.584;2024-03-17T00:27:06;15.27;;;4.70;;
26504;SDS011;19493;48.042;7.584;2024-03-17T00:29:31;15.88;;;3.92;;
26504;SDS011;19493;48.042;7.584;2024-03-17T00:31:57;16.38;;;4.10;;
26504;SDS011;19493;48.042;7.584;2024-03-17T00:34:23;14.77;;;4.55;;
26504;SDS011;19493;48.042;7.584;2024-03-17T00:36:49;12.90;;;4.20;;
26504;SDS011;19493;48.042;7.584;2024-03-17T00:39:16;11.70;;;3.60;;
26504;SDS011;19493;48.042;7.584;2024-03-17T00:41:42;14.43;;;3.60;;
26504;SDS011;19493;48.042;7.584;2024-03-17T00:44:08;14.50;;;4.05;;
26504;SDS011;19493;48.042;7.584;2024-03-17T00:46:34;18.42;;;4.68;;
26504;SDS011;19493;48.042;7.584;2024-03-17T00:48:59;18.80;;;5.70;;
26504;SDS011;19493;48.042;7.584;2024-03-17T00:51:25;15.30;;;3.65;;
26504;SDS011;19493;48.042;7.584;2024-03-17T00:53:51;11.70;;;4.22;;
26504;SDS011;19493;48.042;7.584;2024-03-17T00:56:16;15.93;;;3.38;;
26504;SDS011;19493;48.042;7.584;2024-03-17T00:58:42;30.33;;;4.22;;
26504;SDS011;19493;48.042;7.584;2024-03-17T01:01:09;32.63;;;4.45;;
26504;SDS011;19493;48.042;7.584;2024-03-17T01:03:35;13.27;;;3.97;;
26504;SDS011;19493;48.042;7.584;2024-03-17T01:06:03;7.88;;;3.28;;
26504;SDS011;19493;48.042;7.584;2024-03-17T01:08:29;13.15;;;4.40;;
26504;SDS011;19493;48.042;7.584;2024-03-17T01:10:55;12.27;;;3.53;;
26504;SDS011;19493;48.042;7.584;2024-03-17T01:13:21;14.07;;;4.28;;
26504;SDS011;19493;48.042;7.584;2024-03-17T01:15:50;14.27;;;4.43;;
26504;SDS011;19493;48.042;7.584;2024-03-17T01:18:17;12.48;;;4.47;;
26504;SDS011;19493;48.042;7.584;2024-03-17T01:20:43;12.02;;;4.28;;
26504;SDS011;19493;48.042;7.584;2024-03-17T01:23:09;13.43;;;4.03;;
26504;SDS011;19493;48.042;7.584;2024-03-17T01:25:35;10.75;;;4.38;;
26504;SDS011;19493;48.042;7.584;2024-03-17T01:28:02;12.43;;;4.22;;
26504;SDS011;19493;48.042;7.584;2024-03-17T01:30:28;24.25;;;4.85;;
26504;SDS011;19493;48.042;7.584;2024-03-17T01:32:54;11.52;;;4.13;;
26504;SDS011;19493;48.042;7.584;2024-03-17T01:35:20;14.00;;;4.85;;
26504;SDS011;19493;48.042;7.584;2024-03-17T01:37:46;15.50;;;5.00;;
26504;SDS011;19493;48.042;7.584;2024-03-17T01:40:12;16.45;;;4.60;;
26504;SDS011;19493;48.042;7.584;2024-03-17T01:42:38;12.30;;;4.75;;
26504;SDS011;19493;48.042;7.584;2024-03-17T01:47:45;14.18;;;4.70;;
26504;SDS011;19493;48.042;7.584;2024-03-17T01:50:11;18.23;;;4.68;;
26504;SDS011;19493;48.042;7.584;2024-03-17T01:52:38;13.52;;;5.10;;
26504;SDS011;19493;48.042;7.584;2024-03-17T01:55:04;23.27;;;4.55;;
26504;SDS011;19493;48.042;7.584;2024-03-17T01:57:31;18.73;;;5.43;;
26504;SDS011;19493;48.042;7.584;2024-03-17T01:59:56;14.95;;;5.53;;
26504;SDS011;19493;48.042;7.584;2024-03-17T02:02:23;13.10;;;4.97;;
26504;SDS011;19493;48.042;7.584;2024-03-17T02:04:48;14.68;;;5.18;;
26504;SDS011;19493;48.042;7.584;2024-03-17T02:07:15;14.57;;;5.25;;
26504;SDS011;19493;48.042;7.584;2024-03-17T02:09:40;18.70;;;5.00;;
26504;SDS011;19493;48.042;7.584;2024-03-17T02:12:08;16.88;;;5.15;;
26504;SDS011;19493;48.042;7.584;2024-03-17T02:14:34;15.43;;;5.03;;
26504;SDS011;19493;48.042;7.584;2024-03-17T02:17:00;14.02;;;4.90;;
26504;SDS011;19493;48.042;7.584;2024-03-17T02:19:25;17.08;;;5.95;;
26504;SDS011;19493;48.042;7.584;2024-03-17T02:21:51;12.82;;;4.85;;
26504;SDS011;19493;48.042;7.584;2024-03-17T02:24:16;15.95;;;5.57;;
26504;SDS011;19493;48.042;7.584;2024-03-17T02:26:42;19.23;;;4.95;;
26504;SDS011;19493;48.042;7.584;2024-03-17T02:29:07;15.95;;;5.13;;
26504;SDS011;19493;48.042;7.584;2024-03-17T02:31:33;15.55;;;6.00;;
26504;SDS011;19493;48.042;7.584;2024-03-17T02:33:59;17.92;;;5.72;;
26504;SDS011;19493;48.042;7.584;2024-03-17T02:36:24;20.08;;;6.15;;
26504;SDS011;19493;48.042;7.584;2024-03-17T02:38:50;20.27;;;5.78;;
26504;SDS011;19493;48.042;7.584;2024-03-17T02:41:34;17.00;;;5.13;;
26504;SDS011;19493;48.042;7.584;2024-03-17T02:43:59;15.48;;;6.38;;
26504;SDS011;19493;48.042;7.584;2024-03-17T02:46:25;20.98;;;8.10;;
26504;SDS011;19493;48.042;7.584;2024-03-17T02:48:52;23.27;;;7.35;;
26504;SDS011;19493;48.042;7.584;2024-03-17T02:51:19;23.80;;;7.22;;
26504;SDS011;19493;48.042;7.584;2024-03-17T02:53:45;20.75;;;6.60;;
26504;SDS011;19493;48.042;7.584;2024-03-17T02:56:12;20.52;;;7.50;;
26504;SDS011;19493;48.042;7.584;2024-03-17T02:58:41;23.95;;;6.40;;
26504;SDS011;19493;48.042;7.584;2024-03-17T03:01:07;24.00;;;7.68;;
26504;SDS011;19493;48.042;7.584;2024-03-17T03:03:34;22.67;;;7.68;;
26504;SDS011;19493;48.042;7.584;2024-03-17T03:06:01;23.83;;;7.38;;
26504;SDS011;19493;48.042;7.584;2024-03-17T03:08:29;19.00;;;6.38;;
26504;SDS011;19493;48.042;7.584;2024-03-17T03:10:55;17.23;;;6.47;;
26504;SDS011;19493;48.042;7.584;2024-03-17T03:13:20;29.77;;;7.40;;
26504;SDS011;19493;48.042;7.584;2024-03-17T03:15:47;27.77;;;7.13;;
26504;SDS011;19493;48.042;7.584;2024-03-17T03:18:13;19.08;;;6.65;;
26504;SDS011;19493;48.042;7.584;2024-03-17T03:20:40;27.17;;;6.93;;
26504;SDS011;19493;48.042;7.584;2024-03-17T03:23:05;17.42;;;6.65;;
26504;SDS011;19493;48.042;7.584;2024-03-17T03:25:31;20.67;;;6.75;;
26504;SDS011;19493;48.042;7.584;2024-03-17T03:27:57;19.35;;;6.82;;
26504;SDS011;19493;48.042;7.584;2024-03-17T03:30:23;17.10;;;6.80;;
26504;SDS011;19493;48.042;7.584;2024-03-17T03:32:49;19.30;;;7.63;;
26504;SDS011;19493;48.042;7.584;2024-03-17T03:35:15;35.65;;;10.73;;
26504;SDS011;19493;48.042;7.584;2024-03-17T03:37:40;30.65;;;10.27;;
26504;SDS011;19493;48.042;7.584;2024-03-17T03:40:07;37.47;;;10.30;;
26504;SDS011;19493;48.042;7.584;2024-03-17T03:42:43;25.70;;;9.00;;
26504;SDS011;19493;48.042;7.584;2024-03-17T03:45:09;29.73;;;8.85;;
26504;SDS011;19493;48.042;7.584;2024-03-17T03:47:38;23.88;;;8.65;;
26504;SDS011;19493;48.042;7.584;2024-03-17T03:50:05;24.38;;;8.57;;
26504;SDS011;19493;48.042;7.584;2024-03-17T03:52:35;22.95;;;7.93;;
26504;SDS011;19493;48.042;7.584;2024-03-17T03:55:05;26.75;;;8.52;;
26504;SDS011;19493;48.042;7.584;2024-03-17T03:57:32;22.13;;;8.13;;
26504;SDS011;19493;48.042;7.584;2024-03-17T04:00:02;24.27;;;8.95;;
26504;SDS011;19493;48.042;7.584;2024-03-17T04:02:41;21.80;;;7.80;;
26504;SDS011;19493;48.042;7.584;2024-03-17T04:05:07;21.77;;;7.18;;
26504;SDS011;19493;48.042;7.584;2024-03-17T04:07:33;26.58;;;7.40;;
26504;SDS011;19493;48.042;7.584;2024-03-17T04:10:00;25.98;;;7.35;;
26504;SDS011;19493;48.042;7.584;2024-03-17T04:12:29;21.33;;;7.38;;
26504;SDS011;19493;48.042;7.584;2024-03-17T04:14:56;26.48;;;8.32;;
26504;SDS011;19493;48.042;7.584;2024-03-17T04:17:22;32.42;;;8.20;;
26504;SDS011;19493;48.042;7.584;2024-03-17T04:19:51;31.10;;;8.52;;
26504;SDS011;19493;48.042;7.584;2024-03-17T04:22:19;35.90;;;11.93;;
26504;SDS011;19493;48.042;7.584;2024-03-17T04:24:45;39.60;;;12.32;;
26504;SDS011;19493;48.042;7.584;2024-03-17T04:27:13;33.33;;;11.13;;
26504;SDS011;19493;48.042;7.584;2024-03-17T04:29:39;51.15;;;12.82;;
26504;SDS011;19493;48.042;7.584;2024-03-17T04:32:05;39.85;;;11.43;;
26504;SDS011;19493;48.042;7.584;2024-03-17T04:34:31;46.80;;;12.27;;
26504;SDS011;19493;48.042;7.584;2024-03-17T04:36:57;39.80;;;12.48;;
26504;SDS011;19493;48.042;7.584;2024-03-17T04:39:23;46.03;;;12.30;;
26504;SDS011;19493;48.042;7.584;2024-03-17T04:41:50;35.67;;;11.05;;
26504;SDS011;19493;48.042;7.584;2024-03-17T04:44:16;45.95;;;13.15;;
26504;SDS011;19493;48.042;7.584;2024-03-17T04:46:42;37.92;;;12.35;;
26504;SDS011;19493;48.042;7.584;2024-03-17T04:49:08;44.47;;;12.05;;
26504;SDS011;19493;48.042;7.584;2024-03-17T04:51:34;46.35;;;12.65;;
26504;SDS011;19493;48.042;7.584;2024-03-17T04:54:00;32.50;;;10.82;;
26504;SDS011;19493;48.042;7.584;2024-03-17T04:56:28;27.95;;;10.52;;
26504;SDS011;19493;48.042;7.584;2024-03-17T04:58:54;36.75;;;11.25;;
26504;SDS011;19493;48.042;7.584;2024-03-17T05:01:20;42.00;;;11.10;;
26504;SDS011;19493;48.042;7.584;2024-03-17T05:03:46;28.20;;;10.50;;
26504;SDS011;19493;48.042;7.584;2024-03-17T05:06:11;34.80;;;10.85;;
26504;SDS011;19493;48.042;7.584;2024-03-17T05:08:37;31.13;;;9.25;;
26504;SDS011;19493;48.042;7.584;2024-03-17T05:11:04;27.08;;;10.02;;
26504;SDS011;19493;48.042;7.584;2024-03-17T05:13:31;25.83;;;8.82;;
26504;SDS011;19493;48.042;7.584;2024-03-17T05:15:57;34.30;;;10.77;;
26504;SDS011;19493;48.042;7.584;2024-03-17T05:18:23;32.63;;;11.30;;
26504;SDS011;19493;48.042;7.584;2024-03-17T05:21:00;49.08;;;13.32;;
26504;SDS011;19493;48.042;7.584;2024-03-17T05:23:28;51.22;;;13.27;;
26504;SDS011;19493;48.042;7.584;2024-03-17T05:25:59;49.55;;;13.73;;
26504;SDS011;19493;48.042;7.584;2024-03-17T05:28:25;61.35;;;15.23;;
26504;SDS011;19493;48.042;7.584;2024-03-17T05:30:55;61.65;;;15.80;;
26504;SDS011;19493;48.042;7.584;2024-03-17T05:33:22;52.58;;;17.50;;
26504;SDS011;19493;48.042;7.584;2024-03-17T05:35:58;64.88;;;16.40;;
26504;SDS011;19493;48.042;7.584;2024-03-17T05:38:28;61.03;;;16.77;;
26504;SDS011;19493;48.042;7.584;2024-03-17T05:40:58;68.10;;;18.35;;
26504;SDS011;19493;48.042;7.584;2024-03-17T05:43:26;77.57;;;19.02;;
26504;SDS011;19493;48.042;7.584;2024-03-17T05:45:55;85.25;;;19.55;;
26504;SDS011;19493;48.042;7.584;2024-03-17T05:48:23;71.43;;;18.02;;
26504;SDS011;19493;48.042;7.584;2024-03-17T05:50:49;155.00;;;22.40;;
26504;SDS011;19493;48.042;7.584;2024-03-17T05:53:16;94.53;;;21.67;;
26504;SDS011;19493;48.042;7.584;2024-03-17T05:55:43;106.82;;;22.20;;
26504;SDS011;19493;48.042;7.584;2024-03-17T05:58:09;136.05;;;24.83;;
26504;SDS011;19493;48.042;7.584;2024-03-17T06:00:35;153.65;;;27.13;;
26504;SDS011;19493;48.042;7.584;2024-03-17T06:03:01;121.18;;;22.02;;
26504;SDS011;19493;48.042;7.584;2024-03-17T06:05:27;97.43;;;20.98;;
26504;SDS011;19493;48.042;7.584;2024-03-17T06:07:57;73.95;;;19.75;;
26504;SDS011;19493;48.042;7.584;2024-03-17T06:10:22;71.55;;;18.45;;
26504;SDS011;19493;48.042;7.584;2024-03-17T06:12:49;67.00;;;18.13;;
26504;SDS011;19493;48.042;7.584;2024-03-17T06:15:16;72.10;;;18.98;;
26504;SDS011;19493;48.042;7.584;2024-03-17T06:17:41;66.88;;;20.25;;
26504;SDS011;19493;48.042;7.584;2024-03-17T06:20:07;64.60;;;19.88;;
26504;SDS011;19493;48.042;7.584;2024-03-17T06:22:38;72.18;;;18.30;;
26504;SDS011;19493;48.042;7.584;2024-03-17T06:25:04;60.65;;;17.40;;
26504;SDS011;19493;48.042;7.584;2024-03-17T06:27:30;61.25;;;16.17;;
26504;SDS011;19493;48.042;7.584;2024-03-17T06:29:56;54.97;;;16.10;;
26504;SDS011;19493;48.042;7.584;2024-03-17T06:32:22;66.45;;;15.27;;
26504;SDS011;19493;48.042;7.584;2024-03-17T06:34:48;48.78;;;14.32;;
26504;SDS011;19493;48.042;7.584;2024-03-17T06:37:14;54.13;;;14.57;;
26504;SDS011;19493;48.042;7.584;2024-03-17T06:39:39;47.28;;;15.00;;
26504;SDS011;19493;48.042;7.584;2024-03-17T06:42:05;50.17;;;17.27;;
26504;SDS011;19493;48.042;7.584;2024-03-17T06:44:30;45.55;;;14.10;;
26504;SDS011;19493;48.042;7.584;2024-03-17T06:46:58;51.30;;;14.60;;
26504;SDS011;19493;48.042;7.584;2024-03-17T06:49:24;48.63;;;15.00;;
26504;SDS011;19493;48.042;7.584;2024-03-17T06:51:50;48.63;;;12.82;;
26504;SDS011;19493;48.042;7.584;2024-03-17T06:54:15;48.70;;;15.50;;
26504;SDS011;19493;48.042;7.584;2024-03-17T06:56:41;43.00;;;12.52;;
26504;SDS011;19493;48.042;7.584;2024-03-17T06:59:06;49.83;;;13.55;;
26504;SDS011;19493;48.042;7.584;2024-03-17T07:01:32;39.70;;;11.02;;
26504;SDS011;19493;48.042;7.584;2024-03-17T07:03:58;35.47;;;9.68;;
26504;SDS011;19493;48.042;7.584;2024-03-17T07:06:24;42.60;;;12.75;;
26504;SDS011;19493;48.042;7.584;2024-03-17T07:08:52;45.55;;;11.80;;
26504;SDS011;19493;48.042;7.584;2024-03-17T07:11:17;30.58;;;10.63;;
26504;SDS011;19493;48.042;7.584;2024-03-17T07:13:43;28.35;;;10.00;;
26504;SDS011;19493;48.042;7.584;2024-03-17T07:16:09;28.38;;;8.65;;
26504;SDS011;19493;48.042;7.584;2024-03-17T07:18:35;23.88;;;8.82;;
26504;SDS011;19493;48.042;7.584;2024-03-17T07:21:01;42.17;;;13.38;;
26504;SDS011;19493;48.042;7.584;2024-03-17T07:23:32;31.02;;;9.52;;
26504;SDS011;19493;48.042;7.584;2024-03-17T07:25:58;32.38;;;9.07;;
26504;SDS011;19493;48.042;7.584;2024-03-17T07:28:25;25.58;;;7.20;;
26504;SDS011;19493;48.042;7.584;2024-03-17T07:30:52;21.65;;;7.03;;
26504;SDS011;19493;48.042;7.584;2024-03-17T07:33:21;23.08;;;6.50;;
26504;SDS011;19493;48.042;7.584;2024-03-17T07:35:55;25.23;;;7.20;;
26504;SDS011;19493;48.042;7.584;2024-03-17T07:38:28;44.08;;;14.10;;
26504;SDS011;19493;48.042;7.584;2024-03-17T07:40:59;41.28;;;12.30;;
26504;SDS011;19493;48.042;7.584;2024-03-17T07:43:26;24.25;;;7.00;;
26504;SDS011;19493;48.042;7.584;2024-03-17T07:46:05;23.25;;;6.65;;
26504;SDS011;19493;48.042;7.584;2024-03-17T07:48:35;17.50;;;7.18;;
26504;SDS011;19493;48.042;7.584;2024-03-17T07:51:05;30.48;;;6.95;;
26504;SDS011;19493;48.042;7.584;2024-03-17T07:53:33;34.90;;;8.77;;
26504;SDS011;19493;48.042;7.584;2024-03-17T07:56:09;33.75;;;10.65;;
26504;SDS011;19493;48.042;7.584;2024-03-17T07:58:37;42.58;;;12.65;;
26504;SDS011;19493;48.042;7.584;2024-03-17T08:01:04;49.00;;;11.80;;
26504;SDS011;19493;48.042;7.584;2024-03-17T08:03:32;32.28;;;9.18;;
26504;SDS011;19493;48.042;7.584;2024-03-17T08:05:59;28.52;;;9.15;;
26504;SDS011;19493;48.042;7.584;2024-03-17T08:08:25;30.63;;;8.50;;
26504;SDS011;19493;48.042;7.584;2024-03-17T08:10:52;24.85;;;7.93;;
26504;SDS011;19493;48.042;7.584;2024-03-17T08:13:17;25.92;;;8.32;;
26504;SDS011;19493;48.042;7.584;2024-03-17T08:15:44;31.10;;;9.05;;
26504;SDS011;19493;48.042;7.584;2024-03-17T08:18:11;31.48;;;8.68;;
26504;SDS011;19493;48.042;7.584;2024-03-17T08:20:37;24.52;;;8.23;;
26504;SDS011;19493;48.042;7.584;2024-03-17T08:23:04;28.08;;;8.57;;
26504;SDS011;19493;48.042;7.584;2024-03-17T08:25:30;31.55;;;9.77;;
26504;SDS011;19493;48.042;7.584;2024-03-17T08:27:59;26.52;;;8.48;;
26504;SDS011;19493;48.042;7.584;2024-03-17T08:30:26;26.95;;;7.85;;
26504;SDS011;19493;48.042;7.584;2024-03-17T08:32:51;28.42;;;9.45;;
26504;SDS011;19493;48.042;7.584;2024-03-17T08:35:17;31.90;;;9.07;;
26504;SDS011;19493;48.042;7.584;2024-03-17T08:37:43;29.27;;;8.68;;
26504;SDS011;19493;48.042;7.584;2024-03-17T08:40:10;39.78;;;11.57;;
26504;SDS011;19493;48.042;7.584;2024-03-17T08:42:36;37.72;;;10.35;;
26504;SDS011;19493;48.042;7.584;2024-03-17T08:45:01;32.92;;;10.63;;
26504;SDS011;19493;48.042;7.584;2024-03-17T08:47:28;35.45;;;9.52;;
26504;SDS011;19493;48.042;7.584;2024-03-17T08:49:53;50.53;;;13.27;;
26504;SDS011;19493;48.042;7.584;2024-03-17T08:52:19;40.20;;;11.73;;
26504;SDS011;19493;48.042;7.584;2024-03-17T08:54:46;45.28;;;11.57;;
26504;SDS011;19493;48.042;7.584;2024-03-17T08:57:12;52.30;;;14.18;;
26504;SDS011;19493;48.042;7.584;2024-03-17T08:59:38;53.28;;;14.00;;
26504;SDS011;19493;48.042;7.584;2024-03-17T09:02:05;69.70;;;16.77;;
26504;SDS011;19493;48.042;7.584;2024-03-17T09:04:36;64.53;;;15.90;;
26504;SDS011;19493;48.042;7.584;2024-03-17T09:07:02;48.00;;;12.90;;
26504;SDS011;19493;48.042;7.584;2024-03-17T09:09:29;44.13;;;10.60;;
26504;SDS011;19493;48.042;7.584;2024-03-17T09:11:54;29.88;;;9.45;;
26504;SDS011;19493;48.042;7.584;2024-03-17T09:14:20;31.10;;;9.38;;
26504;SDS011;19493;48.042;7.584;2024-03-17T09:16:46;29.38;;;9.32;;
26504;SDS011;19493;48.042;7.584;2024-03-17T09:19:12;28.17;;;8.90;;
26504;SDS011;19493;48.042;7.584;2024-03-17T09:21:38;38.63;;;10.02;;
26504;SDS011;19493;48.042;7.584;2024-03-17T09:24:05;35.30;;;10.63;;
26504;SDS011;19493;48.042;7.584;2024-03-17T09:26:32;44.15;;;11.43;;
26504;SDS011;19493;48.042;7.584;2024-03-17T09:29:04;36.65;;;10.75;;
26504;SDS011;19493;48.042;7.584;2024-03-17T09:31:30;36.80;;;9.77;;
26504;SDS011;19493;48.042;7.584;2024-03-17T09:33:58;25.45;;;8.57;;
26504;SDS011;19493;48.042;7.584;2024-03-17T09:36:24;27.98;;;9.63;;
26504;SDS011;19493;48.042;7.584;2024-03-17T09:38:50;28.73;;;8.75;;
26504;SDS011;19493;48.042;7.584;2024-03-17T09:41:23;28.25;;;8.82;;
26504;SDS011;19493;48.042;7.584;2024-03-17T09:43:53;26.98;;;9.88;;
26504;SDS011;19493;48.042;7.584;2024-03-17T09:46:19;31.35;;;8.60;;
26504;SDS011;19493;48.042;7.584;2024-03-17T09:48:46;31.08;;;8.77;;
26504;SDS011;19493;48.042;7.584;2024-03-17T09:51:19;33.38;;;8.82;;
26504;SDS011;19493;48.042;7.584;2024-03-17T09:53:49;31.30;;;8.85;;
26504;SDS011;19493;48.042;7.584;2024-03-17T09:56:16;29.80;;;8.88;;
26504;SDS011;19493;48.042;7.584;2024-03-17T09:58:44;28.35;;;9.07;;
26504;SDS011;19493;48.042;7.584;2024-03-17T10:01:13;34.00;;;9.90;;
26504;SDS011;19493;48.042;7.584;2024-03-17T10:06:09;42.88;;;8.75;;
26504;SDS011;19493;48.042;7.584;2024-03-17T10:08:42;30.08;;;8.77;;
26504;SDS011;19493;48.042;7.584;2024-03-17T10:11:08;26.80;;;7.57;;
26504;SDS011;19493;48.042;7.584;2024-03-17T10:13:34;25.00;;;7.55;;
26504;SDS011;19493;48.042;7.584;2024-03-17T10:15:59;22.35;;;7.43;;
26504;SDS011;19493;48.042;7.584;2024-03-17T10:18:25;40.53;;;8.60;;
26504;SDS011;19493;48.042;7.584;2024-03-17T10:20:50;29.27;;;7.25;;
26504;SDS011;19493;48.042;7.584;2024-03-17T10:23:21;24.92;;;6.82;;
26504;SDS011;19493;48.042;7.584;2024-03-17T10:25:47;28.02;;;7.57;;
26504;SDS011;19493;48.042;7.584;2024-03-17T10:28:14;25.55;;;7.63;;
26504;SDS011;19493;48.042;7.584;2024-03-17T10:30:41;33.60;;;8.00;;
26504;SDS011;19493;48.042;7.584;2024-03-17T10:33:07;28.05;;;8.25;;
26504;SDS011;19493;48.042;7.584;2024-03-17T10:35:47;29.35;;;8.75;;
26504;SDS011;19493;48.042;7.584;2024-03-17T10:38:13;29.50;;;8.80;;
26504;SDS011;19493;48.042;7.584;2024-03-17T10:40:39;31.58;;;9.25;;
26504;SDS011;19493;48.042;7.584;2024-03-17T10:43:06;37.88;;;10.23;;
26504;SDS011;19493;48.042;7.584;2024-03-17T10:45:33;25.10;;;8.18;;
26504;SDS011;19493;48.042;7.584;2024-03-17T10:48:03;24.15;;;7.63;;
26504;SDS011;19493;48.042;7.584;2024-03-17T10:50:37;37.15;;;9.13;;
26504;SDS011;19493;48.042;7.584;2024-03-17T10:53:04;34.65;;;8.68;;
26504;SDS011;19493;48.042;7.584;2024-03-17T10:55:44;41.67;;;9.20;;
26504;SDS011;19493;48.042;7.584;2024-03-17T11:00:45;31.35;;;9.57;;
26504;SDS011;19493;48.042;7.584;2024-03-17T11:03:11;32.88;;;9.63;;
26504;SDS011;19493;48.042;7.584;2024-03-17T11:05:39;26.25;;;8.93;;
26504;SDS011;19493;48.042;7.584;2024-03-17T11:08:05;37.17;;;9.80;;
26504;SDS011;19493;48.042;7.584;2024-03-17T11:10:35;23.52;;;8.57;;
26504;SDS011;19493;48.042;7.584;2024-03-17T11:13:03;34.22;;;9.07;;
26504;SDS011;19493;48.042;7.584;2024-03-17T11:20:38;30.20;;;8.68;;
26504;SDS011;19493;48.042;7.584;2024-03-17T11:23:07;31.40;;;9.23;;
26504;SDS011;19493;48.042;7.584;2024-03-17T11:25:37;25.80;;;9.00;;
26504;SDS011;19493;48.042;7.584;2024-03-17T11:28:04;29.40;;;8.02;;
26504;SDS011;19493;48.042;7.584;2024-03-17T11:36:43;26.55;;;8.23;;
26504;SDS011;19493;48.042;7.584;2024-03-17T11:38:51;33.88;;;6.90;;
26504;SDS011;19493;48.042;7.584;2024-03-17T11:44:15;41.55;;;9.88;;
26504;SDS011;19493;48.042;7.584;2024-03-17T11:46:52;29.30;;;8.30;;
26504;SDS011;19493;48.042;7.584;2024-03-17T11:49:35;17.40;;;5.37;;
26504;SDS011;19493;48.042;7.584;2024-03-17T11:52:04;25.35;;;6.25;;
26504;SDS011;19493;48.042;7.584;2024-03-17T11:54:34;23.83;;;6.82;;
26504;SDS011;19493;48.042;7.584;2024-03-17T11:57:11;27.73;;;6.65;;
26504;SDS011;19493;48.042;7.584;2024-03-17T11:59:48;28.88;;;7.40;;
26504;SDS011;19493;48.042;7.584;2024-03-17T12:02:35;20.65;;;7.13;;
26504;SDS011;19493;48.042;7.584;2024-03-17T12:05:02;26.25;;;7.47;;
26504;SDS011;19493;48.042;7.584;2024-03-17T12:07:30;25.45;;;7.05;;
26504;SDS011;19493;48.042;7.584;2024-03-17T12:09:56;33.10;;;7.55;;
26504;SDS011;19493;48.042;7.584;2024-03-17T12:12:23;26.35;;;7.63;;
26504;SDS011;19493;48.042;7.584;2024-03-17T12:14:59;21.23;;;5.93;;
26504;SDS011;19493;48.042;7.584;2024-03-17T12:17:26;24.42;;;6.28;;
26504;SDS011;19493;48.042;7.584;2024-03-17T12:19:51;23.85;;;6.88;;
26504;SDS011;19493;48.042;7.584;2024-03-17T12:22:20;24.27;;;6.47;;
26504;SDS011;19493;48.042;7.584;2024-03-17T12:24:51;34.42;;;10.60;;
26504;SDS011;19493;48.042;7.584;2024-03-17T12:27:19;31.90;;;9.65;;
26504;SDS011;19493;48.042;7.584;2024-03-17T12:29:46;24.33;;;7.25;;
26504;SDS011;19493;48.042;7.584;2024-03-17T12:32:17;24.25;;;6.80;;
26504;SDS011;19493;48.042;7.584;2024-03-17T12:34:46;26.45;;;6.80;;
26504;SDS011;19493;48.042;7.584;2024-03-17T12:37:17;23.17;;;6.50;;
26504;SDS011;19493;48.042;7.584;2024-03-17T12:39:44;29.42;;;7.75;;
26504;SDS011;19493;48.042;7.584;2024-03-17T12:42:11;32.78;;;7.68;;
26504;SDS011;19493;48.042;7.584;2024-03-17T12:47:16;18.48;;;6.60;;
26504;SDS011;19493;48.042;7.584;2024-03-17T13:00:57;20.70;;;7.55;;
26504;SDS011;19493;48.042;7.584;2024-03-17T13:03:28;21.40;;;7.20;;
26504;SDS011;19493;48.042;7.584;2024-03-17T13:05:59;47.78;;;9.35;;
26504;SDS011;19493;48.042;7.584;2024-03-17T13:08:25;30.10;;;8.05;;
26504;SDS011;19493;48.042;7.584;2024-03-17T13:10:51;31.50;;;8.77;;
26504;SDS011;19493;48.042;7.584;2024-03-17T13:13:17;41.50;;;9.68;;
26504;SDS011;19493;48.042;7.584;2024-03-17T13:15:43;29.00;;;8.95;;
26504;SDS011;19493;48.042;7.584;2024-03-17T13:18:08;27.70;;;8.50;;
26504;SDS011;19493;48.042;7.584;2024-03-17T13:20:40;34.40;;;9.70;;
26504;SDS011;19493;48.042;7.584;2024-03-17T13:23:06;33.35;;;8.40;;
26504;SDS011;19493;48.042;7.584;2024-03-17T13:25:32;31.95;;;9.85;;
26504;SDS011;19493;48.042;7.584;2024-03-17T13:28:00;30.65;;;8.43;;
26504;SDS011;19493;48.042;7.584;2024-03-17T13:30:26;33.05;;;8.07;;
26504;SDS011;19493;48.042;7.584;2024-03-17T13:32:54;26.55;;;7.63;;
26504;SDS011;19493;48.042;7.584;2024-03-17T13:35:26;30.77;;;8.43;;
26504;SDS011;19493;48.042;7.584;2024-03-17T13:37:54;29.13;;;7.65;;
26504;SDS011;19493;48.042;7.584;2024-03-17T13:40:20;29.77;;;8.43;;
26504;SDS011;19493;48.042;7.584;2024-03-17T13:42:48;35.72;;;9.27;;
26504;SDS011;19493;48.042;7.584;2024-03-17T13:45:15;32.20;;;8.00;;
26504;SDS011;19493;48.042;7.584;2024-03-17T13:47:42;28.38;;;8.05;;
26504;SDS011;19493;48.042;7.584;2024-03-17T13:50:12;21.27;;;6.90;;
26504;SDS011;19493;48.042;7.584;2024-03-17T13:52:38;21.50;;;6.40;;
26504;SDS011;19493;48.042;7.584;2024-03-17T13:55:05;22.67;;;7.00;;
26504;SDS011;19493;48.042;7.584;2024-03-17T13:57:32;30.15;;;7.47;;
26504;SDS011;19493;48.042;7.584;2024-03-17T13:59:58;34.92;;;8.25;;
26504;SDS011;19493;48.042;7.584;2024-03-17T14:02:23;32.08;;;7.07;;
26504;SDS011;19493;48.042;7.584;2024-03-17T14:04:49;26.77;;;7.20;;
26504;SDS011;19493;48.042;7.584;2024-03-17T14:07:14;26.33;;;7.82;;
26504;SDS011;19493;48.042;7.584;2024-03-17T14:09:40;26.40;;;7.10;;
26504;SDS011;19493;48.042;7.584;2024-03-17T14:12:07;22.20;;;5.85;;
26504;SDS011;19493;48.042;7.584;2024-03-17T14:14:33;20.98;;;6.30;;
26504;SDS011;19493;48.042;7.584;2024-03-17T14:16:58;28.17;;;6.63;;
26504;SDS011;19493;48.042;7.584;2024-03-17T14:19:24;32.25;;;6.57;;
26504;SDS011;19493;48.042;7.584;2024-03-17T14:21:49;22.25;;;5.80;;
26504;SDS011;19493;48.042;7.584;2024-03-17T14:24:16;24.50;;;5.63;;
26504;SDS011;19493;48.042;7.584;2024-03-17T14:26:42;19.40;;;6.13;;
26504;SDS011;19493;48.042;7.584;2024-03-17T14:29:07;29.13;;;5.57;;
26504;SDS011;19493;48.042;7.584;2024-03-17T14:31:33;16.88;;;5.50;;
26504;SDS011;19493;48.042;7.584;2024-03-17T14:34:01;26.90;;;6.40;;
26504;SDS011;19493;48.042;7.584;2024-03-17T14:36:28;24.25;;;6.35;;
26504;SDS011;19493;48.042;7.584;2024-03-17T14:38:58;24.75;;;7.13;;
26504;SDS011;19493;48.042;7.584;2024-03-17T14:41:29;37.20;;;6.90;;
26504;SDS011;19493;48.042;7.584;2024-03-17T14:43:56;24.30;;;7.72;;
26504;SDS011;19493;48.042;7.584;2024-03-17T14:46:22;35.53;;;7.75;;
26504;SDS011;19493;48.042;7.584;2024-03-17T14:48:48;26.75;;;5.82;;
26504;SDS011;19493;48.042;7.584;2024-03-17T14:51:15;27.95;;;7.00;;
26504;SDS011;19493;48.042;7.584;2024-03-17T14:53:46;28.00;;;7.10;;
26504;SDS011;19493;48.042;7.584;2024-03-17T14:56:17;26.33;;;8.50;;
26504;SDS011;19493;48.042;7.584;2024-03-17T14:58:44;37.65;;;8.98;;
26504;SDS011;19493;48.042;7.584;2024-03-17T15:01:11;28.75;;;7.30;;
26504;SDS011;19493;48.042;7.584;2024-03-17T15:03:37;29.17;;;7.13;;
26504;SDS011;19493;48.042;7.584;2024-03-17T15:06:08;22.95;;;6.88;;